sensor_id;sensor_type;location;lat;lon;timestamp;P1;durP1;ratioP1;P2;durP2;ratioP2
12681;SDS011;6405;59.208;18.216;2023-05-07T00:02:21;4.43;;;2.37;;
12681;SDS011;6405;59.208;18.216;2023-05-07T00:04:47;3.60;;;2.20;;
12681;SDS011;6405;59.208;18.216;2023-05-07T00:07:13;3.87;;;2.17;;
12681;SDS011;6405;59.208;18.216;2023-05-07T00:09:39;7.20;;;2.80;;
12681;SDS011;6405;59.208;18.216;2023-05-07T00:12:05;3.20;;;2.10;;
12681;SDS011;6405;59.208;18.216;2023-05-07T00:14:31;4.37;;;2.37;;
12681;SDS011;6405;59.208;18.216;2023-05-07T00:16:57;3.77;;;2.43;;
12681;SDS011;6405;59.208;18.216;2023-05-07T00:19:23;3.27;;;1.87;;
12681;SDS011;6405;59.208;18.216;2023-05-07T00:21:49;5.83;;;2.80;;
12681;SDS011;6405;59.208;18.216;2023-05-07T00:24:14;3.63;;;2.17;;
12681;SDS011;6405;59.208;18.216;2023-05-07T00:26:40;2.87;;;2.13;;
12681;SDS011;6405;59.208;18.216;2023-05-07T00:29:06;2.83;;;2.03;;
12681;SDS011;6405;59.208;18.216;2023-05-07T00:31:31;4.60;;;2.20;;
12681;SDS011;6405;59.208;18.216;2023-05-07T00:33:57;3.23;;;2.30;;
12681;SDS011;6405;59.208;18.216;2023-05-07T00:36:23;3.10;;;1.87;;
12681;SDS011;6405;59.208;18.216;2023-05-07T00:38:48;6.60;;;2.57;;
12681;SDS011;6405;59.208;18.216;2023-05-07T00:41:14;3.23;;;2.23;;
12681;SDS011;6405;59.208;18.216;2023-05-07T00:43:40;3.57;;;2.47;;
12681;SDS011;6405;59.208;18.216;2023-05-07T00:46:06;4.23;;;2.63;;
12681;SDS011;6405;59.208;18.216;2023-05-07T00:48:31;6.13;;;2.60;;
12681;SDS011;6405;59.208;18.216;2023-05-07T00:50:57;4.40;;;2.43;;
12681;SDS011;6405;59.208;18.216;2023-05-07T00:53:23;3.00;;;2.13;;
12681;SDS011;6405;59.208;18.216;2023-05-07T00:55:49;3.20;;;2.17;;
12681;SDS011;6405;59.208;18.216;2023-05-07T00:58:15;3.87;;;2.47;;
12681;SDS011;6405;59.208;18.216;2023-05-07T01:00:41;6.63;;;2.47;;
12681;SDS011;6405;59.208;18.216;2023-05-07T01:03:06;3.37;;;2.10;;
12681;SDS011;6405;59.208;18.216;2023-05-07T01:05:32;4.30;;;1.80;;
12681;SDS011;6405;59.208;18.216;2023-05-07T01:07:58;6.17;;;2.43;;
12681;SDS011;6405;59.208;18.216;2023-05-07T01:10:25;6.37;;;2.40;;
12681;SDS011;6405;59.208;18.216;2023-05-07T01:12:51;3.00;;;2.10;;
12681;SDS011;6405;59.208;18.216;2023-05-07T01:15:18;4.60;;;2.27;;
12681;SDS011;6405;59.208;18.216;2023-05-07T01:17:44;6.07;;;2.43;;
12681;SDS011;6405;59.208;18.216;2023-05-07T01:20:10;3.87;;;2.37;;
12681;SDS011;6405;59.208;18.216;2023-05-07T01:22:37;5.50;;;2.70;;
12681;SDS011;6405;59.208;18.216;2023-05-07T01:25:04;3.40;;;2.27;;
12681;SDS011;6405;59.208;18.216;2023-05-07T01:27:30;3.17;;;2.17;;
12681;SDS011;6405;59.208;18.216;2023-05-07T01:29:56;3.17;;;2.30;;
12681;SDS011;6405;59.208;18.216;2023-05-07T01:32:46;4.33;;;2.40;;
12681;SDS011;6405;59.208;18.216;2023-05-07T01:35:09;3.53;;;2.40;;
12681;SDS011;6405;59.208;18.216;2023-05-07T01:37:37;5.13;;;2.43;;
12681;SDS011;6405;59.208;18.216;2023-05-07T01:40:04;3.30;;;1.97;;
12681;SDS011;6405;59.208;18.216;2023-05-07T01:42:32;6.43;;;2.60;;
12681;SDS011;6405;59.208;18.216;2023-05-07T01:44:58;5.47;;;2.80;;
12681;SDS011;6405;59.208;18.216;2023-05-07T01:47:24;4.30;;;2.80;;
12681;SDS011;6405;59.208;18.216;2023-05-07T01:49:50;4.10;;;2.33;;
12681;SDS011;6405;59.208;18.216;2023-05-07T01:52:16;4.17;;;2.50;;
12681;SDS011;6405;59.208;18.216;2023-05-07T01:54:41;2.70;;;2.17;;
12681;SDS011;6405;59.208;18.216;2023-05-07T01:57:07;3.83;;;2.40;;
12681;SDS011;6405;59.208;18.216;2023-05-07T01:59:33;3.93;;;2.50;;
12681;SDS011;6405;59.208;18.216;2023-05-07T02:01:59;4.33;;;2.33;;
12681;SDS011;6405;59.208;18.216;2023-05-07T02:04:25;5.10;;;2.53;;
12681;SDS011;6405;59.208;18.216;2023-05-07T02:06:51;7.93;;;2.70;;
12681;SDS011;6405;59.208;18.216;2023-05-07T02:09:17;3.37;;;2.13;;
12681;SDS011;6405;59.208;18.216;2023-05-07T02:11:43;3.70;;;2.20;;
12681;SDS011;6405;59.208;18.216;2023-05-07T02:14:09;4.07;;;2.23;;
12681;SDS011;6405;59.208;18.216;2023-05-07T02:16:35;3.43;;;2.10;;
12681;SDS011;6405;59.208;18.216;2023-05-07T02:19:01;3.57;;;2.33;;
12681;SDS011;6405;59.208;18.216;2023-05-07T02:21:27;5.50;;;2.37;;
12681;SDS011;6405;59.208;18.216;2023-05-07T02:23:52;4.97;;;2.00;;
12681;SDS011;6405;59.208;18.216;2023-05-07T02:26:18;2.80;;;1.97;;
12681;SDS011;6405;59.208;18.216;2023-05-07T02:28:43;4.47;;;2.10;;
12681;SDS011;6405;59.208;18.216;2023-05-07T02:31:09;3.37;;;2.33;;
12681;SDS011;6405;59.208;18.216;2023-05-07T02:33:35;3.80;;;2.00;;
12681;SDS011;6405;59.208;18.216;2023-05-07T02:36:08;3.40;;;2.10;;
12681;SDS011;6405;59.208;18.216;2023-05-07T02:38:34;3.13;;;2.00;;
12681;SDS011;6405;59.208;18.216;2023-05-07T02:41:00;2.47;;;1.90;;
12681;SDS011;6405;59.208;18.216;2023-05-07T02:43:26;3.37;;;1.83;;
12681;SDS011;6405;59.208;18.216;2023-05-07T02:46:05;3.70;;;1.97;;
12681;SDS011;6405;59.208;18.216;2023-05-07T02:48:33;3.27;;;1.90;;
12681;SDS011;6405;59.208;18.216;2023-05-07T02:50:59;3.17;;;2.20;;
12681;SDS011;6405;59.208;18.216;2023-05-07T02:53:25;3.37;;;2.13;;
12681;SDS011;6405;59.208;18.216;2023-05-07T02:55:54;5.50;;;2.23;;
12681;SDS011;6405;59.208;18.216;2023-05-07T02:58:21;3.23;;;2.00;;
12681;SDS011;6405;59.208;18.216;2023-05-07T03:00:47;5.00;;;2.27;;
12681;SDS011;6405;59.208;18.216;2023-05-07T03:03:15;2.67;;;1.93;;
12681;SDS011;6405;59.208;18.216;2023-05-07T03:05:41;3.53;;;2.30;;
12681;SDS011;6405;59.208;18.216;2023-05-07T03:08:08;3.07;;;1.70;;
12681;SDS011;6405;59.208;18.216;2023-05-07T03:10:34;4.70;;;2.00;;
12681;SDS011;6405;59.208;18.216;2023-05-07T03:13:00;4.37;;;2.23;;
12681;SDS011;6405;59.208;18.216;2023-05-07T03:15:26;2.70;;;1.87;;
12681;SDS011;6405;59.208;18.216;2023-05-07T03:17:52;3.90;;;2.33;;
12681;SDS011;6405;59.208;18.216;2023-05-07T03:20:17;3.77;;;2.07;;
12681;SDS011;6405;59.208;18.216;2023-05-07T03:22:43;3.53;;;2.53;;
12681;SDS011;6405;59.208;18.216;2023-05-07T03:25:09;3.40;;;1.93;;
12681;SDS011;6405;59.208;18.216;2023-05-07T03:27:35;4.27;;;2.43;;
12681;SDS011;6405;59.208;18.216;2023-05-07T03:30:00;5.73;;;2.30;;
12681;SDS011;6405;59.208;18.216;2023-05-07T03:32:26;2.77;;;1.80;;
12681;SDS011;6405;59.208;18.216;2023-05-07T03:34:52;2.87;;;2.13;;
12681;SDS011;6405;59.208;18.216;2023-05-07T03:37:18;4.63;;;2.53;;
12681;SDS011;6405;59.208;18.216;2023-05-07T03:39:43;3.77;;;2.20;;
12681;SDS011;6405;59.208;18.216;2023-05-07T03:42:09;3.40;;;2.40;;
12681;SDS011;6405;59.208;18.216;2023-05-07T03:44:35;3.90;;;2.60;;
12681;SDS011;6405;59.208;18.216;2023-05-07T03:47:01;4.03;;;2.30;;
12681;SDS011;6405;59.208;18.216;2023-05-07T03:49:27;4.03;;;2.43;;
12681;SDS011;6405;59.208;18.216;2023-05-07T03:51:53;5.33;;;2.40;;
12681;SDS011;6405;59.208;18.216;2023-05-07T03:54:18;3.47;;;2.17;;
12681;SDS011;6405;59.208;18.216;2023-05-07T03:56:44;4.20;;;2.47;;
12681;SDS011;6405;59.208;18.216;2023-05-07T03:59:10;4.57;;;2.63;;
12681;SDS011;6405;59.208;18.216;2023-05-07T04:01:35;3.20;;;2.40;;
12681;SDS011;6405;59.208;18.216;2023-05-07T04:04:01;3.17;;;2.30;;
12681;SDS011;6405;59.208;18.216;2023-05-07T04:06:28;3.57;;;2.40;;
12681;SDS011;6405;59.208;18.216;2023-05-07T04:08:53;5.20;;;2.23;;
12681;SDS011;6405;59.208;18.216;2023-05-07T04:11:19;5.83;;;2.60;;
12681;SDS011;6405;59.208;18.216;2023-05-07T04:13:45;3.97;;;2.43;;
12681;SDS011;6405;59.208;18.216;2023-05-07T04:16:10;3.27;;;2.53;;
12681;SDS011;6405;59.208;18.216;2023-05-07T04:18:36;4.57;;;2.83;;
12681;SDS011;6405;59.208;18.216;2023-05-07T04:21:02;3.53;;;2.33;;
12681;SDS011;6405;59.208;18.216;2023-05-07T04:23:27;4.03;;;2.83;;
12681;SDS011;6405;59.208;18.216;2023-05-07T04:25:53;3.20;;;2.57;;
12681;SDS011;6405;59.208;18.216;2023-05-07T04:28:19;4.90;;;2.67;;
12681;SDS011;6405;59.208;18.216;2023-05-07T04:30:45;4.40;;;2.50;;
12681;SDS011;6405;59.208;18.216;2023-05-07T04:33:11;4.00;;;2.53;;
12681;SDS011;6405;59.208;18.216;2023-05-07T04:35:37;3.70;;;2.30;;
12681;SDS011;6405;59.208;18.216;2023-05-07T04:38:02;5.60;;;2.67;;
12681;SDS011;6405;59.208;18.216;2023-05-07T04:40:28;5.07;;;2.57;;
12681;SDS011;6405;59.208;18.216;2023-05-07T04:42:54;4.80;;;2.87;;
12681;SDS011;6405;59.208;18.216;2023-05-07T04:45:20;4.63;;;2.90;;
12681;SDS011;6405;59.208;18.216;2023-05-07T04:47:46;4.30;;;2.80;;
12681;SDS011;6405;59.208;18.216;2023-05-07T04:50:12;5.27;;;2.80;;
12681;SDS011;6405;59.208;18.216;2023-05-07T04:52:37;7.97;;;3.50;;
12681;SDS011;6405;59.208;18.216;2023-05-07T04:55:03;6.07;;;3.23;;
12681;SDS011;6405;59.208;18.216;2023-05-07T04:57:29;6.07;;;3.13;;
12681;SDS011;6405;59.208;18.216;2023-05-07T04:59:55;6.07;;;3.40;;
12681;SDS011;6405;59.208;18.216;2023-05-07T05:02:20;5.90;;;2.83;;
12681;SDS011;6405;59.208;18.216;2023-05-07T05:04:46;5.77;;;3.37;;
12681;SDS011;6405;59.208;18.216;2023-05-07T05:07:11;8.70;;;3.87;;
12681;SDS011;6405;59.208;18.216;2023-05-07T05:09:38;6.10;;;3.67;;
12681;SDS011;6405;59.208;18.216;2023-05-07T05:12:04;8.67;;;3.83;;
12681;SDS011;6405;59.208;18.216;2023-05-07T05:14:32;8.40;;;4.07;;
12681;SDS011;6405;59.208;18.216;2023-05-07T05:16:57;8.67;;;4.33;;
12681;SDS011;6405;59.208;18.216;2023-05-07T05:19:23;11.27;;;4.73;;
12681;SDS011;6405;59.208;18.216;2023-05-07T05:21:49;7.67;;;3.90;;
12681;SDS011;6405;59.208;18.216;2023-05-07T05:24:14;8.03;;;4.10;;
12681;SDS011;6405;59.208;18.216;2023-05-07T05:26:40;8.13;;;4.67;;
12681;SDS011;6405;59.208;18.216;2023-05-07T05:29:06;10.00;;;4.47;;
12681;SDS011;6405;59.208;18.216;2023-05-07T05:31:32;9.27;;;4.43;;
12681;SDS011;6405;59.208;18.216;2023-05-07T05:33:58;9.90;;;4.40;;
12681;SDS011;6405;59.208;18.216;2023-05-07T05:36:24;11.47;;;4.77;;
12681;SDS011;6405;59.208;18.216;2023-05-07T05:38:50;8.17;;;4.53;;
12681;SDS011;6405;59.208;18.216;2023-05-07T05:41:16;7.30;;;4.10;;
12681;SDS011;6405;59.208;18.216;2023-05-07T05:43:42;6.73;;;2.73;;
12681;SDS011;6405;59.208;18.216;2023-05-07T05:46:07;6.10;;;3.43;;
12681;SDS011;6405;59.208;18.216;2023-05-07T05:48:36;5.90;;;3.57;;
12681;SDS011;6405;59.208;18.216;2023-05-07T05:51:01;5.90;;;3.57;;
12681;SDS011;6405;59.208;18.216;2023-05-07T05:53:27;5.27;;;3.50;;
12681;SDS011;6405;59.208;18.216;2023-05-07T05:55:52;7.97;;;3.50;;
12681;SDS011;6405;59.208;18.216;2023-05-07T05:58:18;4.67;;;3.47;;
12681;SDS011;6405;59.208;18.216;2023-05-07T06:00:44;5.60;;;2.63;;
12681;SDS011;6405;59.208;18.216;2023-05-07T06:03:11;3.63;;;2.30;;
12681;SDS011;6405;59.208;18.216;2023-05-07T06:05:36;4.13;;;2.20;;
12681;SDS011;6405;59.208;18.216;2023-05-07T06:08:02;2.53;;;1.80;;
12681;SDS011;6405;59.208;18.216;2023-05-07T06:10:28;2.53;;;1.93;;
12681;SDS011;6405;59.208;18.216;2023-05-07T06:12:55;2.17;;;1.77;;
12681;SDS011;6405;59.208;18.216;2023-05-07T06:15:20;2.33;;;1.63;;
12681;SDS011;6405;59.208;18.216;2023-05-07T06:17:46;4.47;;;1.80;;
12681;SDS011;6405;59.208;18.216;2023-05-07T06:20:12;2.80;;;1.77;;
12681;SDS011;6405;59.208;18.216;2023-05-07T06:22:37;3.23;;;1.60;;
12681;SDS011;6405;59.208;18.216;2023-05-07T06:25:03;3.00;;;1.97;;
12681;SDS011;6405;59.208;18.216;2023-05-07T06:27:30;1.77;;;1.53;;
12681;SDS011;6405;59.208;18.216;2023-05-07T06:29:55;1.60;;;1.47;;
12681;SDS011;6405;59.208;18.216;2023-05-07T06:32:21;1.93;;;1.60;;
12681;SDS011;6405;59.208;18.216;2023-05-07T06:34:47;4.63;;;1.47;;
12681;SDS011;6405;59.208;18.216;2023-05-07T06:37:12;1.43;;;1.30;;
12681;SDS011;6405;59.208;18.216;2023-05-07T06:39:38;2.43;;;1.60;;
12681;SDS011;6405;59.208;18.216;2023-05-07T06:42:03;2.63;;;1.50;;
12681;SDS011;6405;59.208;18.216;2023-05-07T06:44:29;1.73;;;1.37;;
12681;SDS011;6405;59.208;18.216;2023-05-07T06:46:56;1.80;;;1.33;;
12681;SDS011;6405;59.208;18.216;2023-05-07T06:49:22;2.30;;;1.57;;
12681;SDS011;6405;59.208;18.216;2023-05-07T06:51:47;3.23;;;1.60;;
12681;SDS011;6405;59.208;18.216;2023-05-07T06:54:13;2.33;;;1.63;;
12681;SDS011;6405;59.208;18.216;2023-05-07T06:56:38;2.00;;;1.50;;
12681;SDS011;6405;59.208;18.216;2023-05-07T06:59:04;2.33;;;1.20;;
12681;SDS011;6405;59.208;18.216;2023-05-07T07:01:31;1.87;;;1.50;;
12681;SDS011;6405;59.208;18.216;2023-05-07T07:03:57;2.37;;;1.70;;
12681;SDS011;6405;59.208;18.216;2023-05-07T07:06:22;3.43;;;1.60;;
12681;SDS011;6405;59.208;18.216;2023-05-07T07:08:48;2.07;;;1.30;;
12681;SDS011;6405;59.208;18.216;2023-05-07T07:11:14;1.87;;;1.20;;
12681;SDS011;6405;59.208;18.216;2023-05-07T07:13:40;1.23;;;1.00;;
12681;SDS011;6405;59.208;18.216;2023-05-07T07:16:06;1.67;;;1.27;;
12681;SDS011;6405;59.208;18.216;2023-05-07T07:18:32;2.37;;;1.37;;
12681;SDS011;6405;59.208;18.216;2023-05-07T07:20:57;4.13;;;1.40;;
12681;SDS011;6405;59.208;18.216;2023-05-07T07:23:24;1.30;;;1.20;;
12681;SDS011;6405;59.208;18.216;2023-05-07T07:25:50;2.07;;;1.03;;
12681;SDS011;6405;59.208;18.216;2023-05-07T07:28:15;2.53;;;1.10;;
12681;SDS011;6405;59.208;18.216;2023-05-07T07:30:41;1.70;;;1.10;;
12681;SDS011;6405;59.208;18.216;2023-05-07T07:33:07;0.90;;;0.90;;
12681;SDS011;6405;59.208;18.216;2023-05-07T07:35:33;1.93;;;1.10;;
12681;SDS011;6405;59.208;18.216;2023-05-07T07:37:59;3.67;;;1.00;;
12681;SDS011;6405;59.208;18.216;2023-05-07T07:40:24;1.97;;;1.10;;
12681;SDS011;6405;59.208;18.216;2023-05-07T07:42:53;1.10;;;1.00;;
12681;SDS011;6405;59.208;18.216;2023-05-07T07:45:19;2.20;;;1.00;;
12681;SDS011;6405;59.208;18.216;2023-05-07T07:47:45;1.10;;;1.00;;
12681;SDS011;6405;59.208;18.216;2023-05-07T07:50:11;4.73;;;1.10;;
12681;SDS011;6405;59.208;18.216;2023-05-07T07:52:37;2.30;;;0.97;;
12681;SDS011;6405;59.208;18.216;2023-05-07T07:55:03;0.90;;;0.90;;
12681;SDS011;6405;59.208;18.216;2023-05-07T07:57:29;1.57;;;1.10;;
12681;SDS011;6405;59.208;18.216;2023-05-07T07:59:55;2.23;;;1.10;;
12681;SDS011;6405;59.208;18.216;2023-05-07T08:02:20;1.00;;;0.90;;
12681;SDS011;6405;59.208;18.216;2023-05-07T08:04:46;2.67;;;1.50;;
12681;SDS011;6405;59.208;18.216;2023-05-07T08:07:12;2.57;;;1.20;;
12681;SDS011;6405;59.208;18.216;2023-05-07T08:09:38;2.30;;;1.27;;
12681;SDS011;6405;59.208;18.216;2023-05-07T08:12:05;1.37;;;1.00;;
12681;SDS011;6405;59.208;18.216;2023-05-07T08:14:31;1.83;;;1.23;;
12681;SDS011;6405;59.208;18.216;2023-05-07T08:16:56;1.90;;;0.90;;
12681;SDS011;6405;59.208;18.216;2023-05-07T08:19:22;1.27;;;1.00;;
12681;SDS011;6405;59.208;18.216;2023-05-07T08:21:48;1.30;;;1.20;;
12681;SDS011;6405;59.208;18.216;2023-05-07T08:24:14;1.77;;;1.03;;
12681;SDS011;6405;59.208;18.216;2023-05-07T08:26:40;1.30;;;1.03;;
12681;SDS011;6405;59.208;18.216;2023-05-07T08:29:06;3.83;;;0.90;;
12681;SDS011;6405;59.208;18.216;2023-05-07T08:31:32;1.57;;;0.93;;
12681;SDS011;6405;59.208;18.216;2023-05-07T08:33:58;1.03;;;0.90;;
12681;SDS011;6405;59.208;18.216;2023-05-07T08:36:25;2.43;;;1.20;;
12681;SDS011;6405;59.208;18.216;2023-05-07T08:38:51;1.33;;;0.80;;
12681;SDS011;6405;59.208;18.216;2023-05-07T08:41:17;1.80;;;1.30;;
12681;SDS011;6405;59.208;18.216;2023-05-07T08:43:44;2.03;;;1.00;;
12681;SDS011;6405;59.208;18.216;2023-05-07T08:46:13;1.93;;;1.10;;
12681;SDS011;6405;59.208;18.216;2023-05-07T08:48:43;1.27;;;1.17;;
12681;SDS011;6405;59.208;18.216;2023-05-07T08:51:13;1.73;;;1.20;;
12681;SDS011;6405;59.208;18.216;2023-05-07T08:53:40;0.93;;;0.90;;
12681;SDS011;6405;59.208;18.216;2023-05-07T08:56:08;2.03;;;1.00;;
12681;SDS011;6405;59.208;18.216;2023-05-07T08:58:34;1.23;;;0.90;;
12681;SDS011;6405;59.208;18.216;2023-05-07T09:01:01;2.47;;;0.80;;
12681;SDS011;6405;59.208;18.216;2023-05-07T09:03:40;1.67;;;1.17;;
12681;SDS011;6405;59.208;18.216;2023-05-07T09:06:09;3.07;;;1.00;;
12681;SDS011;6405;59.208;18.216;2023-05-07T09:08:35;3.97;;;1.30;;
12681;SDS011;6405;59.208;18.216;2023-05-07T09:11:01;1.60;;;0.90;;
12681;SDS011;6405;59.208;18.216;2023-05-07T09:13:27;1.07;;;0.97;;
12681;SDS011;6405;59.208;18.216;2023-05-07T09:15:53;1.17;;;0.90;;
12681;SDS011;6405;59.208;18.216;2023-05-07T09:18:18;1.77;;;0.90;;
12681;SDS011;6405;59.208;18.216;2023-05-07T09:20:44;1.87;;;1.17;;
12681;SDS011;6405;59.208;18.216;2023-05-07T09:23:10;1.63;;;1.20;;
12681;SDS011;6405;59.208;18.216;2023-05-07T09:25:36;2.33;;;1.10;;
12681;SDS011;6405;59.208;18.216;2023-05-07T09:28:02;1.10;;;1.00;;
12681;SDS011;6405;59.208;18.216;2023-05-07T09:30:32;2.93;;;1.00;;
12681;SDS011;6405;59.208;18.216;2023-05-07T09:32:59;1.80;;;1.20;;
12681;SDS011;6405;59.208;18.216;2023-05-07T09:35:26;1.00;;;1.00;;
12681;SDS011;6405;59.208;18.216;2023-05-07T09:37:53;3.63;;;1.13;;
12681;SDS011;6405;59.208;18.216;2023-05-07T09:40:24;2.50;;;1.10;;
12681;SDS011;6405;59.208;18.216;2023-05-07T09:42:51;5.87;;;1.60;;
12681;SDS011;6405;59.208;18.216;2023-05-07T09:45:29;1.60;;;1.10;;
12681;SDS011;6405;59.208;18.216;2023-05-07T09:47:56;1.97;;;1.07;;
12681;SDS011;6405;59.208;18.216;2023-05-07T09:50:27;1.17;;;1.07;;
12681;SDS011;6405;59.208;18.216;2023-05-07T09:52:54;1.10;;;1.00;;
12681;SDS011;6405;59.208;18.216;2023-05-07T09:55:21;2.33;;;1.30;;
12681;SDS011;6405;59.208;18.216;2023-05-07T09:57:51;1.83;;;1.17;;
12681;SDS011;6405;59.208;18.216;2023-05-07T10:00:21;1.67;;;1.27;;
12681;SDS011;6405;59.208;18.216;2023-05-07T10:02:48;1.20;;;1.10;;
12681;SDS011;6405;59.208;18.216;2023-05-07T10:05:17;1.20;;;1.00;;
12681;SDS011;6405;59.208;18.216;2023-05-07T10:07:43;1.57;;;1.30;;
12681;SDS011;6405;59.208;18.216;2023-05-07T10:10:10;3.43;;;1.40;;
12681;SDS011;6405;59.208;18.216;2023-05-07T10:12:36;2.13;;;1.27;;
12681;SDS011;6405;59.208;18.216;2023-05-07T10:15:07;2.60;;;0.90;;
12681;SDS011;6405;59.208;18.216;2023-05-07T10:17:37;3.53;;;1.23;;
12681;SDS011;6405;59.208;18.216;2023-05-07T10:20:04;2.30;;;1.13;;
12681;SDS011;6405;59.208;18.216;2023-05-07T10:22:38;2.23;;;1.13;;
12681;SDS011;6405;59.208;18.216;2023-05-07T10:25:09;1.10;;;1.00;;
12681;SDS011;6405;59.208;18.216;2023-05-07T10:27:42;1.90;;;1.40;;
12681;SDS011;6405;59.208;18.216;2023-05-07T10:30:21;2.07;;;1.10;;
12681;SDS011;6405;59.208;18.216;2023-05-07T10:32:51;2.07;;;1.40;;
12681;SDS011;6405;59.208;18.216;2023-05-07T10:35:21;3.03;;;1.43;;
12681;SDS011;6405;59.208;18.216;2023-05-07T10:37:52;1.20;;;1.10;;
12681;SDS011;6405;59.208;18.216;2023-05-07T10:40:19;3.07;;;1.40;;
12681;SDS011;6405;59.208;18.216;2023-05-07T10:45:21;1.57;;;1.10;;
12681;SDS011;6405;59.208;18.216;2023-05-07T10:48:06;2.00;;;1.20;;
12681;SDS011;6405;59.208;18.216;2023-05-07T10:50:42;2.73;;;1.27;;
12681;SDS011;6405;59.208;18.216;2023-05-07T10:55:47;2.33;;;1.10;;
12681;SDS011;6405;59.208;18.216;2023-05-07T10:58:28;1.20;;;1.00;;
12681;SDS011;6405;59.208;18.216;2023-05-07T11:00:57;3.13;;;1.10;;
12681;SDS011;6405;59.208;18.216;2023-05-07T11:03:24;2.73;;;1.20;;
12681;SDS011;6405;59.208;18.216;2023-05-07T11:11:43;1.77;;;1.00;;
12681;SDS011;6405;59.208;18.216;2023-05-07T11:14:13;1.93;;;1.10;;
12681;SDS011;6405;59.208;18.216;2023-05-07T11:16:40;1.40;;;1.10;;
12681;SDS011;6405;59.208;18.216;2023-05-07T11:19:08;1.77;;;1.13;;
12681;SDS011;6405;59.208;18.216;2023-05-07T11:21:37;8.17;;;1.67;;
12681;SDS011;6405;59.208;18.216;2023-05-07T11:24:03;2.97;;;1.40;;
12681;SDS011;6405;59.208;18.216;2023-05-07T11:26:31;2.60;;;1.20;;
12681;SDS011;6405;59.208;18.216;2023-05-07T11:29:10;2.00;;;1.20;;
12681;SDS011;6405;59.208;18.216;2023-05-07T11:31:43;1.10;;;0.93;;
12681;SDS011;6405;59.208;18.216;2023-05-07T11:34:14;1.23;;;1.10;;
12681;SDS011;6405;59.208;18.216;2023-05-07T11:36:45;2.37;;;1.37;;
12681;SDS011;6405;59.208;18.216;2023-05-07T11:42:28;1.40;;;1.30;;
12681;SDS011;6405;59.208;18.216;2023-05-07T11:44:58;1.43;;;1.20;;
12681;SDS011;6405;59.208;18.216;2023-05-07T11:47:25;2.77;;;1.23;;
12681;SDS011;6405;59.208;18.216;2023-05-07T11:49:51;3.27;;;1.60;;
12681;SDS011;6405;59.208;18.216;2023-05-07T11:52:18;2.97;;;1.50;;
12681;SDS011;6405;59.208;18.216;2023-05-07T11:54:49;3.27;;;1.40;;
12681;SDS011;6405;59.208;18.216;2023-05-07T11:57:15;3.53;;;1.17;;
12681;SDS011;6405;59.208;18.216;2023-05-07T11:59:41;1.67;;;1.33;;
12681;SDS011;6405;59.208;18.216;2023-05-07T12:02:09;1.80;;;1.10;;
12681;SDS011;6405;59.208;18.216;2023-05-07T12:04:35;3.23;;;1.43;;
12681;SDS011;6405;59.208;18.216;2023-05-07T12:07:01;2.10;;;1.33;;
12681;SDS011;6405;59.208;18.216;2023-05-07T12:09:26;2.30;;;1.20;;
12681;SDS011;6405;59.208;18.216;2023-05-07T12:11:52;2.83;;;1.63;;
12681;SDS011;6405;59.208;18.216;2023-05-07T12:14:18;6.50;;;1.13;;
12681;SDS011;6405;59.208;18.216;2023-05-07T12:16:44;1.70;;;1.03;;
12681;SDS011;6405;59.208;18.216;2023-05-07T12:19:11;1.30;;;1.13;;
12681;SDS011;6405;59.208;18.216;2023-05-07T12:21:40;2.67;;;1.30;;
12681;SDS011;6405;59.208;18.216;2023-05-07T12:24:06;2.67;;;1.20;;
12681;SDS011;6405;59.208;18.216;2023-05-07T12:26:35;3.23;;;1.10;;
12681;SDS011;6405;59.208;18.216;2023-05-07T12:29:03;2.90;;;1.20;;
12681;SDS011;6405;59.208;18.216;2023-05-07T12:31:28;2.87;;;1.30;;
12681;SDS011;6405;59.208;18.216;2023-05-07T12:33:54;2.90;;;1.50;;
12681;SDS011;6405;59.208;18.216;2023-05-07T12:36:20;3.23;;;1.17;;
12681;SDS011;6405;59.208;18.216;2023-05-07T12:38:46;2.07;;;1.30;;
12681;SDS011;6405;59.208;18.216;2023-05-07T12:41:15;3.10;;;1.40;;
12681;SDS011;6405;59.208;18.216;2023-05-07T12:43:43;1.63;;;1.00;;
12681;SDS011;6405;59.208;18.216;2023-05-07T12:46:10;1.87;;;1.10;;
12681;SDS011;6405;59.208;18.216;2023-05-07T12:48:41;2.93;;;1.07;;
12681;SDS011;6405;59.208;18.216;2023-05-07T12:51:10;1.77;;;1.40;;
12681;SDS011;6405;59.208;18.216;2023-05-07T12:53:41;2.50;;;1.07;;
12681;SDS011;6405;59.208;18.216;2023-05-07T12:56:07;1.80;;;1.00;;
12681;SDS011;6405;59.208;18.216;2023-05-07T12:58:34;2.17;;;1.17;;
12681;SDS011;6405;59.208;18.216;2023-05-07T13:01:04;2.13;;;1.10;;
12681;SDS011;6405;59.208;18.216;2023-05-07T13:03:31;1.70;;;1.20;;
12681;SDS011;6405;59.208;18.216;2023-05-07T13:06:05;2.67;;;1.20;;
12681;SDS011;6405;59.208;18.216;2023-05-07T13:08:38;1.17;;;1.07;;
12681;SDS011;6405;59.208;18.216;2023-05-07T13:11:06;2.03;;;1.10;;
12681;SDS011;6405;59.208;18.216;2023-05-07T13:13:33;2.63;;;1.20;;
12681;SDS011;6405;59.208;18.216;2023-05-07T13:16:00;2.53;;;1.20;;
12681;SDS011;6405;59.208;18.216;2023-05-07T13:18:27;1.40;;;1.20;;
12681;SDS011;6405;59.208;18.216;2023-05-07T13:20:54;1.50;;;1.37;;
12681;SDS011;6405;59.208;18.216;2023-05-07T13:23:19;1.40;;;1.10;;
12681;SDS011;6405;59.208;18.216;2023-05-07T13:25:46;1.10;;;0.90;;
12681;SDS011;6405;59.208;18.216;2023-05-07T13:28:11;1.33;;;1.20;;
12681;SDS011;6405;59.208;18.216;2023-05-07T13:30:37;1.50;;;1.10;;
12681;SDS011;6405;59.208;18.216;2023-05-07T13:33:03;2.70;;;1.20;;
12681;SDS011;6405;59.208;18.216;2023-05-07T13:35:28;1.60;;;1.20;;
12681;SDS011;6405;59.208;18.216;2023-05-07T13:37:55;2.83;;;1.03;;
12681;SDS011;6405;59.208;18.216;2023-05-07T13:40:21;1.03;;;0.90;;
12681;SDS011;6405;59.208;18.216;2023-05-07T13:42:47;2.67;;;1.30;;
12681;SDS011;6405;59.208;18.216;2023-05-07T13:45:14;1.23;;;1.03;;
12681;SDS011;6405;59.208;18.216;2023-05-07T13:47:43;2.30;;;0.97;;
12681;SDS011;6405;59.208;18.216;2023-05-07T13:50:09;2.60;;;1.23;;
12681;SDS011;6405;59.208;18.216;2023-05-07T13:52:36;1.73;;;1.03;;
12681;SDS011;6405;59.208;18.216;2023-05-07T13:55:02;1.00;;;0.90;;
12681;SDS011;6405;59.208;18.216;2023-05-07T13:57:29;2.97;;;1.10;;
12681;SDS011;6405;59.208;18.216;2023-05-07T13:59:54;2.77;;;1.07;;
12681;SDS011;6405;59.208;18.216;2023-05-07T14:02:20;1.67;;;1.27;;
12681;SDS011;6405;59.208;18.216;2023-05-07T14:04:46;2.00;;;1.03;;
12681;SDS011;6405;59.208;18.216;2023-05-07T14:07:11;1.47;;;1.00;;
12681;SDS011;6405;59.208;18.216;2023-05-07T14:09:37;1.10;;;0.97;;
12681;SDS011;6405;59.208;18.216;2023-05-07T14:12:03;1.83;;;0.97;;
12681;SDS011;6405;59.208;18.216;2023-05-07T14:14:29;3.60;;;1.23;;
12681;SDS011;6405;59.208;18.216;2023-05-07T14:16:54;3.87;;;1.47;;
12681;SDS011;6405;59.208;18.216;2023-05-07T14:19:20;2.20;;;1.20;;
12681;SDS011;6405;59.208;18.216;2023-05-07T14:21:47;3.50;;;1.10;;
12681;SDS011;6405;59.208;18.216;2023-05-07T14:24:13;1.47;;;1.10;;
12681;SDS011;6405;59.208;18.216;2023-05-07T14:26:39;1.87;;;1.40;;
12681;SDS011;6405;59.208;18.216;2023-05-07T14:29:04;1.93;;;1.20;;
12681;SDS011;6405;59.208;18.216;2023-05-07T14:31:30;1.20;;;1.10;;
12681;SDS011;6405;59.208;18.216;2023-05-07T14:33:56;1.80;;;1.13;;
12681;SDS011;6405;59.208;18.216;2023-05-07T14:36:23;1.20;;;0.90;;
12681;SDS011;6405;59.208;18.216;2023-05-07T14:38:51;1.33;;;1.00;;
12681;SDS011;6405;59.208;18.216;2023-05-07T14:41:19;3.67;;;1.10;;
12681;SDS011;6405;59.208;18.216;2023-05-07T14:43:46;2.43;;;1.00;;
12681;SDS011;6405;59.208;18.216;2023-05-07T14:46:17;1.40;;;1.10;;
12681;SDS011;6405;59.208;18.216;2023-05-07T14:48:44;1.20;;;1.10;;
12681;SDS011;6405;59.208;18.216;2023-05-07T14:51:11;2.27;;;1.10;;
12681;SDS011;6405;59.208;18.216;2023-05-07T14:53:37;2.73;;;1.00;;
12681;SDS011;6405;59.208;18.216;2023-05-07T14:56:03;1.87;;;0.93;;
12681;SDS011;6405;59.208;18.216;2023-05-07T14:58:29;2.40;;;1.10;;
12681;SDS011;6405;59.208;18.216;2023-05-07T15:00:55;2.40;;;1.20;;